createdAt,value
2023-04-15T00:00:01.221Z,19.75
2023-04-15T00:02:29.849Z,19.76
2023-04-15T00:04:58.032Z,19.75
2023-04-15T00:07:26.250Z,19.74
2023-04-15T00:09:56.480Z,19.73
2023-04-15T00:12:27.412Z,19.72
2023-04-15T00:14:57.133Z,19.70
2023-04-15T00:17:25.198Z,19.67
2023-04-15T00:19:53.356Z,19.67
2023-04-15T00:22:21.614Z,19.66
2023-04-15T00:24:49.507Z,19.65
2023-04-15T00:27:17.480Z,19.64
2023-04-15T00:29:45.546Z,19.62
2023-04-15T00:32:13.788Z,19.60
2023-04-15T00:34:42.767Z,19.60
2023-04-15T00:37:10.966Z,19.58
2023-04-15T00:39:39.350Z,19.59
2023-04-15T00:42:07.438Z,19.58
2023-04-15T00:44:35.510Z,19.58
2023-04-15T00:47:04.095Z,19.50
2023-04-15T00:49:32.486Z,19.55
2023-04-15T00:52:00.552Z,19.55
2023-04-15T00:54:28.614Z,19.54
2023-04-15T00:56:56.689Z,19.53
2023-04-15T00:59:24.767Z,19.51
2023-04-15T01:01:52.911Z,19.50
2023-04-15T01:04:21.194Z,19.49
2023-04-15T01:06:49.396Z,19.48
2023-04-15T01:09:17.981Z,19.47
2023-04-15T01:11:46.050Z,19.47
2023-04-15T01:14:14.219Z,19.43
2023-04-15T01:16:42.602Z,19.42
2023-04-15T01:19:10.881Z,19.42
2023-04-15T01:21:39.975Z,19.43
2023-04-15T01:24:09.921Z,19.41
2023-04-15T01:26:39.319Z,19.39
2023-04-15T01:29:09.722Z,19.38
2023-04-15T01:31:37.982Z,19.38
2023-04-15T01:34:06.276Z,19.39
2023-04-15T01:36:34.406Z,19.38
2023-04-15T01:39:02.805Z,19.37
2023-04-15T01:41:31.100Z,19.36
2023-04-15T01:43:59.067Z,19.36
2023-04-15T01:46:27.173Z,19.34
2023-04-15T01:48:55.224Z,19.34
2023-04-15T01:51:23.501Z,19.32
2023-04-15T01:53:52.526Z,19.31
2023-04-15T01:56:20.479Z,19.31
2023-04-15T01:58:49.043Z,19.30
2023-04-15T02:01:19.653Z,19.29
2023-04-15T02:03:48.491Z,19.28
2023-04-15T02:06:16.837Z,19.26
2023-04-15T02:08:45.434Z,19.28
2023-04-15T02:11:13.816Z,19.27
2023-04-15T02:13:41.954Z,19.25
2023-04-15T02:16:19.204Z,19.24
2023-04-15T02:18:47.652Z,19.24
2023-04-15T02:21:15.713Z,19.24
2023-04-15T02:23:44.212Z,19.22
2023-04-15T02:26:14.928Z,19.20
2023-04-15T02:28:43.006Z,19.18
2023-04-15T02:31:11.186Z,19.18
2023-04-15T02:33:39.246Z,19.19
2023-04-15T02:36:08.564Z,19.18
2023-04-15T02:38:38.298Z,19.13
2023-04-15T02:41:06.284Z,19.15
2023-04-15T02:43:35.632Z,19.12
2023-04-15T02:46:04.154Z,19.13
2023-04-15T02:48:32.620Z,19.11
2023-04-15T02:51:19.917Z,19.10
2023-04-15T02:53:49.011Z,19.08
2023-04-15T02:56:17.584Z,19.06
2023-04-15T02:58:50.848Z,19.07
2023-04-15T03:01:20.735Z,19.02
2023-04-15T03:03:49.403Z,19.03
2023-04-15T03:06:17.670Z,19.01
2023-04-15T03:08:45.810Z,18.97
2023-04-15T03:11:15.351Z,18.97
2023-04-15T03:13:43.792Z,19.01
2023-04-15T03:16:21.365Z,19.03
2023-04-15T03:18:49.607Z,19.08
2023-04-15T03:21:18.156Z,19.12
2023-04-15T03:23:48.919Z,19.15
2023-04-15T03:26:27.737Z,19.19
2023-04-15T03:28:56.629Z,19.22
2023-04-15T03:31:24.844Z,19.26
2023-04-15T03:33:53.076Z,19.29
2023-04-15T03:36:21.356Z,19.32
2023-04-15T03:38:50.216Z,19.37
2023-04-15T03:41:18.415Z,19.41
2023-04-15T03:43:46.500Z,19.45
2023-04-15T03:46:14.683Z,19.49
2023-04-15T03:48:42.628Z,19.55
2023-04-15T03:51:10.984Z,19.59
2023-04-15T03:53:38.984Z,19.62
2023-04-15T03:56:07.530Z,19.67
2023-04-15T03:58:36.043Z,19.71
2023-04-15T04:01:03.972Z,19.76
2023-04-15T04:03:32.386Z,19.81
2023-04-15T04:06:00.676Z,19.87
2023-04-15T04:08:28.750Z,19.90
2023-04-15T04:10:57.285Z,19.96
2023-04-15T04:13:25.526Z,20.01
2023-04-15T04:15:53.721Z,20.05
2023-04-15T04:18:21.929Z,20.09
2023-04-15T04:20:50.026Z,20.13
2023-04-15T04:23:17.993Z,20.18
2023-04-15T04:25:46.376Z,20.21
2023-04-15T04:28:14.435Z,20.26
2023-04-15T04:30:42.521Z,20.30
2023-04-15T04:33:11.403Z,20.35
2023-04-15T04:35:39.794Z,20.38
2023-04-15T04:38:07.672Z,20.41
2023-04-15T04:40:35.830Z,20.45
2023-04-15T04:43:04.004Z,20.48
2023-04-15T04:45:32.085Z,20.52
2023-04-15T04:48:00.294Z,20.57
2023-04-15T04:50:28.541Z,20.61
2023-04-15T04:52:56.589Z,20.63
2023-04-15T04:55:24.668Z,20.67
2023-04-15T04:57:52.851Z,20.68
2023-04-15T05:00:21.305Z,20.71
2023-04-15T05:02:49.475Z,20.73
2023-04-15T05:05:17.978Z,20.74
2023-04-15T05:07:46.123Z,20.72
2023-04-15T05:10:15.432Z,20.76
2023-04-15T05:12:43.784Z,20.76
2023-04-15T05:15:12.319Z,20.77
2023-04-15T05:17:40.433Z,20.80
2023-04-15T05:20:09.873Z,20.80
2023-04-15T05:22:37.855Z,20.80
2023-04-15T05:25:06.556Z,20.79
2023-04-15T05:27:34.810Z,20.79
2023-04-15T05:30:02.989Z,20.79
2023-04-15T05:32:31.421Z,20.79
2023-04-15T05:34:59.492Z,20.80
2023-04-15T05:37:27.436Z,20.82
2023-04-15T05:39:55.485Z,20.82
2023-04-15T05:42:23.674Z,20.84
2023-04-15T05:44:52.077Z,20.84
2023-04-15T05:47:20.128Z,20.83
2023-04-15T05:49:48.191Z,20.82
2023-04-15T05:52:16.890Z,20.82
2023-04-15T05:54:45.043Z,20.82
2023-04-15T05:57:13.130Z,20.76
2023-04-15T05:59:42.312Z,20.80
2023-04-15T06:02:10.656Z,20.81
2023-04-15T06:04:39.467Z,20.81
2023-04-15T06:07:07.656Z,20.81
2023-04-15T06:09:36.366Z,20.80
2023-04-15T06:12:04.835Z,20.79
2023-04-15T06:14:32.816Z,20.80
2023-04-15T06:17:01.406Z,20.79
2023-04-15T06:19:29.765Z,20.76
2023-04-15T06:21:58.458Z,20.76
2023-04-15T06:24:26.382Z,20.76
2023-04-15T06:26:54.413Z,20.73
2023-04-15T06:29:22.364Z,20.71
2023-04-15T06:31:50.566Z,20.71
2023-04-15T06:34:18.600Z,20.71
2023-04-15T06:36:46.772Z,20.72
2023-04-15T06:39:14.848Z,20.73
2023-04-15T06:41:43.335Z,20.75
2023-04-15T06:44:11.606Z,20.77
2023-04-15T06:46:39.673Z,20.79
2023-04-15T06:49:08.364Z,20.83
2023-04-15T06:51:36.933Z,20.85
2023-04-15T06:54:06.336Z,20.86
2023-04-15T06:56:34.417Z,20.86
2023-04-15T06:59:02.682Z,20.86
2023-04-15T07:01:31.088Z,20.88
2023-04-15T07:03:59.250Z,20.87
2023-04-15T07:06:27.934Z,20.87
2023-04-15T07:08:55.846Z,20.88
2023-04-15T07:11:23.877Z,20.86
2023-04-15T07:13:51.844Z,20.88
2023-04-15T07:16:19.942Z,20.85
2023-04-15T07:18:48.210Z,20.85
2023-04-15T07:21:16.127Z,20.88
2023-04-15T07:23:44.133Z,20.89
2023-04-15T07:26:12.513Z,20.91
2023-04-15T07:28:40.653Z,20.93
2023-04-15T07:31:09.225Z,20.96
2023-04-15T07:33:38.120Z,20.98
2023-04-15T07:36:06.536Z,21.00
2023-04-15T07:38:34.499Z,21.05
2023-04-15T07:41:02.794Z,21.09
2023-04-15T07:43:30.704Z,21.13
2023-04-15T07:45:58.750Z,21.15
2023-04-15T07:48:27.189Z,21.19
2023-04-15T07:50:55.166Z,21.21
2023-04-15T07:53:23.186Z,21.24
2023-04-15T07:55:51.046Z,21.29
2023-04-15T07:58:19.199Z,21.32
2023-04-15T08:00:47.454Z,21.36
2023-04-15T08:03:15.827Z,21.37
2023-04-15T08:05:44.929Z,21.38
2023-04-15T08:08:13.001Z,21.40
2023-04-15T08:10:41.066Z,21.42
2023-04-15T08:13:09.359Z,21.45
2023-04-15T08:15:37.530Z,21.48
2023-04-15T08:18:05.602Z,21.50
2023-04-15T08:20:34.085Z,21.53
2023-04-15T08:23:02.362Z,21.55
2023-04-15T08:25:30.433Z,21.56
2023-04-15T08:27:58.506Z,21.58
2023-04-15T08:30:26.436Z,21.60
2023-04-15T08:32:54.581Z,21.62
2023-04-15T08:35:23.230Z,21.64
2023-04-15T08:40:19.529Z,21.68
2023-04-15T08:42:49.290Z,21.71
2023-04-15T08:45:17.556Z,21.72
2023-04-15T08:47:45.891Z,21.73
2023-04-15T08:50:14.009Z,21.74
2023-04-15T08:52:42.604Z,21.75
2023-04-15T08:55:10.780Z,21.75
2023-04-15T08:57:40.011Z,21.77
2023-04-15T09:00:09.491Z,21.80
2023-04-15T09:02:37.520Z,21.82
2023-04-15T09:05:07.033Z,21.85
2023-04-15T09:07:36.686Z,21.85
2023-04-15T09:10:05.489Z,21.87
2023-04-15T09:12:37.111Z,21.89
2023-04-15T09:15:05.796Z,21.91
2023-04-15T09:17:34.314Z,21.91
2023-04-15T09:20:15.552Z,21.93
2023-04-15T09:22:44.961Z,21.95
2023-04-15T09:25:18.658Z,22.00
2023-04-15T09:27:50.484Z,22.03
2023-04-15T09:30:18.895Z,22.07
2023-04-15T09:32:57.188Z,22.10
2023-04-15T09:35:26.298Z,22.15
2023-04-15T09:38:02.183Z,22.17
2023-04-15T09:40:38.455Z,22.21
2023-04-15T09:43:07.350Z,22.24
2023-04-15T09:45:36.021Z,22.25
2023-04-15T09:48:18.845Z,22.29
2023-04-15T09:50:47.305Z,22.31
2023-04-15T09:53:22.345Z,22.35
2023-04-15T09:55:54.817Z,22.37
2023-04-15T09:58:27.808Z,22.40
2023-04-15T10:00:57.227Z,22.43
2023-04-15T10:03:27.720Z,22.46
2023-04-15T10:05:57.379Z,22.49
2023-04-15T10:08:35.554Z,22.51
2023-04-15T10:11:03.734Z,22.51
2023-04-15T10:13:37.146Z,22.54
2023-04-15T10:16:11.983Z,22.56
2023-04-15T10:18:47.929Z,22.58
2023-04-15T10:21:18.885Z,22.62
2023-04-15T10:23:47.236Z,22.65
2023-04-15T10:26:15.808Z,22.68
2023-04-15T10:28:50.289Z,22.70
2023-04-15T10:31:18.778Z,22.73
2023-04-15T10:33:47.620Z,22.76
2023-04-15T10:36:16.192Z,22.75
2023-04-15T10:38:45.954Z,22.81
2023-04-15T10:41:21.043Z,22.83
2023-04-15T10:44:09.749Z,22.85
2023-04-15T10:46:39.559Z,22.85
2023-04-15T10:49:12.599Z,22.87
2023-04-15T10:51:45.784Z,22.89
2023-04-15T10:54:17.734Z,22.92
2023-04-15T10:56:45.922Z,22.94
2023-04-15T10:59:13.897Z,22.93
2023-04-15T11:02:00.268Z,22.96
2023-04-15T11:05:00.929Z,22.98
2023-04-15T11:07:35.828Z,23.02
2023-04-15T11:10:09.810Z,23.05
2023-04-15T11:12:38.051Z,23.06
2023-04-15T11:15:24.947Z,23.08
2023-04-15T11:17:53.174Z,23.11
2023-04-15T11:20:21.506Z,23.12
2023-04-15T11:22:50.820Z,23.14
2023-04-15T11:25:29.224Z,23.20
2023-04-15T11:27:58.320Z,23.23
2023-04-15T11:30:27.925Z,23.25
2023-04-15T11:32:58.407Z,23.27
2023-04-15T11:35:26.848Z,23.27
2023-04-15T11:37:55.521Z,23.28
2023-04-15T11:40:30.539Z,23.29
2023-04-15T11:43:11.610Z,23.31
2023-04-15T11:45:59.301Z,23.33
2023-04-15T11:48:34.895Z,23.36
2023-04-15T11:51:07.081Z,23.37
2023-04-15T11:53:46.332Z,23.34
2023-04-15T11:56:32.432Z,23.37
2023-04-15T11:59:00.493Z,23.35
2023-04-15T12:01:47.869Z,23.36
2023-04-15T12:19:42.501Z,23.32
2023-04-15T12:22:15.374Z,23.32
2023-04-15T12:24:44.377Z,23.32
2023-04-15T12:27:12.996Z,23.30
2023-04-15T12:29:43.292Z,23.31
2023-04-15T12:32:11.468Z,23.31
2023-04-15T12:34:52.250Z,23.31
2023-04-15T12:37:20.309Z,23.31
2023-04-15T12:39:49.899Z,23.31
2023-04-15T12:42:18.383Z,23.31
2023-04-15T12:44:47.057Z,23.30
2023-04-15T12:54:56.144Z,23.35
2023-04-15T12:57:24.240Z,23.35
2023-04-15T12:59:52.313Z,23.34
2023-04-15T13:02:21.315Z,23.34
2023-04-15T13:04:49.432Z,23.35
2023-04-15T13:07:17.755Z,23.30
2023-04-15T13:09:45.818Z,23.35
2023-04-15T13:19:55.168Z,23.37
2023-04-15T13:22:23.275Z,23.37
2023-04-15T13:24:51.764Z,23.36
2023-04-15T13:27:19.740Z,23.36
2023-04-15T13:29:47.802Z,23.36
2023-04-15T13:32:15.875Z,23.34
2023-04-15T13:34:44.035Z,23.33
2023-04-15T13:37:12.220Z,23.33
2023-04-15T13:39:40.717Z,23.30
2023-04-15T13:42:08.982Z,23.28
2023-04-15T13:44:36.931Z,23.28
2023-04-15T13:47:05.133Z,23.26
2023-04-15T13:49:33.205Z,23.26
2023-04-15T13:52:01.261Z,23.25
2023-04-15T13:54:37.489Z,23.21
2023-04-15T13:57:06.666Z,23.25
2023-04-15T13:59:37.682Z,23.25
2023-04-15T14:02:05.810Z,23.26
2023-04-15T14:04:34.026Z,23.27
2023-04-15T14:07:03.400Z,23.28
2023-04-15T14:12:02.428Z,23.26
2023-04-15T14:14:30.582Z,23.26
2023-04-15T14:16:59.012Z,23.22
2023-04-15T14:19:27.262Z,23.18
2023-04-15T14:21:55.742Z,23.16
2023-04-15T14:24:23.704Z,23.12
2023-04-15T14:26:51.776Z,23.09
2023-04-15T14:29:20.359Z,23.07
2023-04-15T14:32:04.018Z,23.04
2023-04-15T14:34:37.935Z,23.00
2023-04-15T14:37:05.948Z,22.97
2023-04-15T14:39:34.163Z,22.95
2023-04-15T14:42:02.404Z,22.93
2023-04-15T14:46:59.605Z,22.89
2023-04-15T14:49:27.851Z,22.87
2023-04-15T14:51:55.805Z,22.84
2023-04-15T14:54:23.928Z,22.84
2023-04-15T14:56:52.101Z,22.80
2023-04-15T14:59:20.070Z,22.79
2023-04-15T15:01:48.187Z,22.76
2023-04-15T15:04:16.493Z,22.73
2023-04-15T15:06:45.121Z,22.69
2023-04-15T15:09:14.302Z,22.66
2023-04-15T15:11:42.199Z,22.62
2023-04-15T15:14:10.352Z,22.58
2023-04-15T15:16:38.405Z,22.53
2023-04-15T15:19:06.482Z,22.48
2023-04-15T15:21:35.379Z,22.44
2023-04-15T15:24:03.651Z,22.37
2023-04-15T15:26:32.029Z,22.34
2023-04-15T15:29:00.145Z,22.30
2023-04-15T15:31:28.134Z,22.26
2023-04-15T15:33:56.246Z,22.22
2023-04-15T15:36:24.077Z,22.19
2023-04-15T15:38:52.101Z,22.17
2023-04-15T15:41:20.105Z,22.15
2023-04-15T15:43:48.121Z,22.16
2023-04-15T15:46:16.436Z,22.14
2023-04-15T15:48:44.464Z,22.15
2023-04-15T15:51:12.824Z,22.15
2023-04-15T15:53:40.926Z,22.16
2023-04-15T15:56:08.955Z,22.13
2023-04-15T15:58:37.057Z,22.11
2023-04-15T16:01:05.199Z,22.09
2023-04-15T16:03:33.579Z,22.08
2023-04-15T16:06:01.998Z,22.06
2023-04-15T16:08:30.059Z,22.04
2023-04-15T16:10:58.220Z,22.02
2023-04-15T16:13:26.446Z,22.00
2023-04-15T16:15:54.728Z,22.00
2023-04-15T16:18:22.756Z,22.00
2023-04-15T16:20:51.169Z,21.99
2023-04-15T16:23:19.662Z,21.98
2023-04-15T16:25:48.413Z,21.98
2023-04-15T16:28:26.309Z,21.96
2023-04-15T16:30:55.715Z,21.97
2023-04-15T16:33:23.636Z,21.94
2023-04-15T16:35:51.761Z,21.94
2023-04-15T16:38:19.835Z,21.92
2023-04-15T16:40:48.003Z,21.91
2023-04-15T16:43:16.178Z,21.90
2023-04-15T16:45:45.579Z,21.88
2023-04-15T16:48:13.753Z,21.87
2023-04-15T16:50:41.833Z,21.85
2023-04-15T16:53:09.914Z,21.84
2023-04-15T16:55:37.928Z,21.80
2023-04-15T16:58:08.350Z,21.79
2023-04-15T17:00:37.254Z,21.76
2023-04-15T17:03:06.164Z,21.72
2023-04-15T17:05:34.772Z,21.69
2023-04-15T17:08:02.728Z,21.66
2023-04-15T17:10:31.427Z,21.64
2023-04-15T17:15:32.491Z,21.59
2023-04-15T17:18:00.701Z,21.55
2023-04-15T17:20:28.831Z,21.53
2023-04-15T17:22:56.910Z,21.49
2023-04-15T17:25:24.970Z,21.46
2023-04-15T17:27:53.146Z,21.43
2023-04-15T17:30:21.624Z,21.39
2023-04-15T17:32:49.609Z,21.37
2023-04-15T17:35:18.591Z,21.34
2023-04-15T17:37:46.541Z,21.30
2023-04-15T17:40:15.045Z,21.27
2023-04-15T17:42:43.009Z,21.24
2023-04-15T17:45:11.695Z,21.21
2023-04-15T17:47:39.721Z,21.18
2023-04-15T17:50:09.469Z,21.16
2023-04-15T17:52:37.442Z,21.13
2023-04-15T17:57:39.935Z,21.07
2023-04-15T18:00:10.298Z,21.03
2023-04-15T18:02:41.466Z,21.02
2023-04-15T18:05:10.566Z,20.99
2023-04-15T18:07:38.777Z,20.96
2023-04-15T18:10:08.289Z,20.93
2023-04-15T18:12:36.248Z,20.94
2023-04-15T18:15:06.467Z,20.94
2023-04-15T18:17:34.553Z,20.96
2023-04-15T18:20:02.929Z,20.98
2023-04-15T18:22:30.898Z,20.99
2023-04-15T18:25:04.618Z,21.02
2023-04-15T18:27:33.600Z,21.04
2023-04-15T18:30:01.577Z,21.06
2023-04-15T18:32:32.866Z,21.08
2023-04-15T18:35:01.308Z,21.10
2023-04-15T18:37:32.030Z,21.12
2023-04-15T18:40:00.408Z,21.14
2023-04-15T18:42:28.479Z,21.17
2023-04-15T18:44:56.479Z,21.19
2023-04-15T18:47:27.112Z,21.21
2023-04-15T18:49:55.488Z,21.23
2023-04-15T18:52:23.737Z,21.23
2023-04-15T18:54:51.807Z,21.25
2023-04-15T18:57:24.522Z,21.26
2023-04-15T19:00:02.680Z,21.27
2023-04-15T19:02:30.734Z,21.29
2023-04-15T19:04:58.946Z,21.30
2023-04-15T19:07:27.230Z,21.32
2023-04-15T19:09:55.482Z,21.33
2023-04-15T19:12:23.661Z,21.34
2023-04-15T19:14:51.739Z,21.36
2023-04-15T19:17:20.168Z,21.36
2023-04-15T19:19:48.218Z,21.37
2023-04-15T19:22:16.642Z,21.37
2023-04-15T19:24:44.868Z,21.37
2023-04-15T19:27:12.916Z,21.37
2023-04-15T19:29:41.209Z,21.38
2023-04-15T19:32:09.264Z,21.37
2023-04-15T19:34:37.231Z,21.37
2023-04-15T19:37:05.312Z,21.37
2023-04-15T19:39:33.969Z,21.36
2023-04-15T19:42:02.890Z,21.32
2023-04-15T19:44:30.929Z,21.35
2023-04-15T19:46:59.235Z,21.34
2023-04-15T19:49:27.306Z,21.34
2023-04-15T19:51:56.098Z,21.34
2023-04-15T19:54:24.134Z,21.33
2023-04-15T19:56:52.346Z,21.33
2023-04-15T19:59:20.406Z,21.31
2023-04-15T20:01:48.872Z,21.30
2023-04-15T20:04:17.070Z,21.31
2023-04-15T20:06:45.859Z,21.28
2023-04-15T20:09:14.205Z,21.27
2023-04-15T20:12:10.065Z,21.26
2023-04-15T20:14:31.171Z,21.23
2023-04-15T20:16:59.344Z,21.21
2023-04-15T20:19:27.419Z,21.21
2023-04-15T20:21:55.491Z,21.19
2023-04-15T20:24:24.395Z,21.19
2023-04-15T20:26:52.445Z,21.16
2023-04-15T20:29:20.390Z,21.16
2023-04-15T20:31:48.734Z,21.13
2023-04-15T20:34:16.868Z,21.13
2023-04-15T20:36:44.741Z,21.11
2023-04-15T20:39:12.689Z,21.11
2023-04-15T20:41:40.771Z,21.11
2023-04-15T20:44:08.849Z,21.08
2023-04-15T20:46:37.073Z,21.07
2023-04-15T20:49:05.701Z,21.05
2023-04-15T20:51:37.874Z,21.03
2023-04-15T20:54:06.333Z,21.02
2023-04-15T20:56:34.430Z,21.02
2023-04-15T20:59:02.628Z,21.01
2023-04-15T21:01:30.991Z,20.99
2023-04-15T21:03:59.616Z,20.97
2023-04-15T21:06:27.736Z,20.97
2023-04-15T21:08:55.924Z,20.96
2023-04-15T21:11:40.963Z,20.95
2023-04-15T21:14:12.546Z,20.94
2023-04-15T21:16:40.865Z,20.93
2023-04-15T21:19:09.593Z,20.93
2023-04-15T21:21:37.581Z,20.92
2023-04-15T21:24:07.882Z,20.91
2023-04-15T21:26:36.479Z,20.89
2023-04-15T21:29:04.685Z,20.88
2023-04-15T21:31:33.102Z,20.86
2023-04-15T21:34:01.313Z,20.86
2023-04-15T21:36:29.712Z,20.84
2023-04-15T21:38:57.972Z,20.81
2023-04-15T21:41:26.655Z,20.77
2023-04-15T21:43:54.763Z,20.77
2023-04-15T21:46:25.684Z,20.74
2023-04-15T21:49:00.609Z,20.72
2023-04-15T21:51:28.767Z,20.72
2023-04-15T21:53:56.939Z,20.71
2023-04-15T21:56:25.544Z,20.69
2023-04-15T21:58:56.526Z,20.70
2023-04-15T22:01:26.483Z,20.69
2023-04-15T22:03:54.826Z,20.65
2023-04-15T22:06:23.145Z,20.63
2023-04-15T22:09:11.942Z,20.62
2023-04-15T22:11:39.455Z,20.59
2023-04-15T22:14:07.439Z,20.59
2023-04-15T22:16:35.409Z,20.48
2023-04-15T22:19:03.553Z,20.54
2023-04-15T22:21:32.042Z,20.51
2023-04-15T22:24:32.075Z,20.50
2023-04-15T22:26:48.225Z,20.48
2023-04-15T22:29:16.335Z,20.47
2023-04-15T22:31:44.575Z,20.46
2023-04-15T22:34:14.937Z,20.44
2023-04-15T22:36:43.132Z,20.41
2023-04-15T22:39:11.285Z,20.41
2023-04-15T22:41:39.563Z,20.39
2023-04-15T22:44:07.639Z,20.36
2023-04-15T22:46:35.656Z,20.35
2023-04-15T22:49:07.079Z,20.33
2023-04-15T22:51:36.716Z,20.29
2023-04-15T22:54:04.731Z,20.27
2023-04-15T22:56:32.859Z,20.25
2023-04-15T22:59:01.078Z,20.24
2023-04-15T23:01:29.272Z,20.23
2023-04-15T23:04:07.328Z,20.21
2023-04-15T23:06:45.472Z,20.18
2023-04-15T23:09:13.649Z,20.17
2023-04-15T23:11:42.026Z,20.14
2023-04-15T23:14:10.210Z,20.13
2023-04-15T23:16:38.188Z,20.11
2023-04-15T23:19:06.474Z,20.10
2023-04-15T23:21:34.617Z,20.07
2023-04-15T23:24:02.609Z,20.05
2023-04-15T23:26:31.377Z,20.04
2023-04-15T23:28:59.342Z,20.01
2023-04-15T23:31:27.261Z,20.01
2023-04-15T23:33:55.388Z,19.98
2023-04-15T23:36:23.449Z,19.97
2023-04-15T23:38:51.392Z,19.95
2023-04-15T23:41:19.305Z,19.93
2023-04-15T23:43:47.364Z,19.92
2023-04-15T23:46:15.783Z,19.90
2023-04-15T23:48:43.916Z,19.89
2023-04-15T23:51:11.980Z,19.86
2023-04-15T23:53:40.078Z,19.85
2023-04-15T23:56:08.226Z,19.84
2023-04-15T23:58:36.682Z,19.83
